sensor_id;sensor_type;location;lat;lon;timestamp;P1;durP1;ratioP1;P2;durP2;ratioP2
8279;SDS011;8335;42.646;23.380;2023-04-24T00:00:31;8.07;;;5.60;;
8279;SDS011;8335;42.646;23.380;2023-04-24T00:02:57;9.70;;;5.50;;
8279;SDS011;8335;42.646;23.380;2023-04-24T00:05:24;8.63;;;5.90;;
8279;SDS011;8335;42.646;23.380;2023-04-24T00:07:52;11.10;;;5.43;;
8279;SDS011;8335;42.646;23.380;2023-04-24T00:10:20;7.93;;;5.80;;
8279;SDS011;8335;42.646;23.380;2023-04-24T00:12:47;9.03;;;6.00;;
8279;SDS011;8335;42.646;23.380;2023-04-24T00:15:14;10.40;;;5.77;;
8279;SDS011;8335;42.646;23.380;2023-04-24T00:17:40;8.03;;;5.70;;
8279;SDS011;8335;42.646;23.380;2023-04-24T00:20:07;8.43;;;5.57;;
8279;SDS011;8335;42.646;23.380;2023-04-24T00:22:36;7.50;;;5.40;;
8279;SDS011;8335;42.646;23.380;2023-04-24T00:25:04;9.53;;;5.63;;
8279;SDS011;8335;42.646;23.380;2023-04-24T00:27:32;11.53;;;5.70;;
8279;SDS011;8335;42.646;23.380;2023-04-24T00:30:00;8.10;;;5.77;;
8279;SDS011;8335;42.646;23.380;2023-04-24T00:32:26;11.20;;;6.03;;
8279;SDS011;8335;42.646;23.380;2023-04-24T00:34:53;11.87;;;6.83;;
8279;SDS011;8335;42.646;23.380;2023-04-24T00:37:20;10.80;;;6.93;;
8279;SDS011;8335;42.646;23.380;2023-04-24T00:39:46;10.03;;;6.17;;
8279;SDS011;8335;42.646;23.380;2023-04-24T00:42:14;7.70;;;6.03;;
8279;SDS011;8335;42.646;23.380;2023-04-24T00:44:41;6.70;;;5.67;;
8279;SDS011;8335;42.646;23.380;2023-04-24T00:47:08;7.27;;;5.50;;
8279;SDS011;8335;42.646;23.380;2023-04-24T00:49:35;9.70;;;6.10;;
8279;SDS011;8335;42.646;23.380;2023-04-24T00:52:02;10.33;;;6.30;;
8279;SDS011;8335;42.646;23.380;2023-04-24T00:54:32;9.73;;;5.67;;
8279;SDS011;8335;42.646;23.380;2023-04-24T00:56:59;6.43;;;5.50;;
8279;SDS011;8335;42.646;23.380;2023-04-24T00:59:28;8.10;;;5.90;;
8279;SDS011;8335;42.646;23.380;2023-04-24T01:01:55;7.00;;;5.80;;
8279;SDS011;8335;42.646;23.380;2023-04-24T01:04:22;10.30;;;6.20;;
8279;SDS011;8335;42.646;23.380;2023-04-24T01:06:49;10.13;;;5.83;;
8279;SDS011;8335;42.646;23.380;2023-04-24T01:09:16;9.50;;;6.00;;
8279;SDS011;8335;42.646;23.380;2023-04-24T01:11:44;10.57;;;6.33;;
8279;SDS011;8335;42.646;23.380;2023-04-24T01:14:11;9.47;;;6.17;;
8279;SDS011;8335;42.646;23.380;2023-04-24T01:16:39;9.63;;;6.60;;
8279;SDS011;8335;42.646;23.380;2023-04-24T01:19:06;9.70;;;6.53;;
8279;SDS011;8335;42.646;23.380;2023-04-24T01:21:34;7.87;;;6.27;;
8279;SDS011;8335;42.646;23.380;2023-04-24T01:24:04;9.20;;;6.70;;
8279;SDS011;8335;42.646;23.380;2023-04-24T01:26:32;9.47;;;6.60;;
8279;SDS011;8335;42.646;23.380;2023-04-24T01:28:59;8.87;;;6.60;;
8279;SDS011;8335;42.646;23.380;2023-04-24T01:31:26;7.37;;;6.60;;
8279;SDS011;8335;42.646;23.380;2023-04-24T01:33:53;8.87;;;6.70;;
8279;SDS011;8335;42.646;23.380;2023-04-24T01:36:21;11.33;;;6.60;;
8279;SDS011;8335;42.646;23.380;2023-04-24T01:38:48;9.43;;;6.53;;
8279;SDS011;8335;42.646;23.380;2023-04-24T01:41:16;11.47;;;7.20;;
8279;SDS011;8335;42.646;23.380;2023-04-24T01:43:43;11.77;;;7.60;;
8279;SDS011;8335;42.646;23.380;2023-04-24T01:46:10;10.63;;;6.87;;
8279;SDS011;8335;42.646;23.380;2023-04-24T01:48:37;9.63;;;6.60;;
8279;SDS011;8335;42.646;23.380;2023-04-24T01:51:04;9.00;;;6.50;;
8279;SDS011;8335;42.646;23.380;2023-04-24T01:53:30;10.30;;;6.50;;
8279;SDS011;8335;42.646;23.380;2023-04-24T01:55:57;10.70;;;7.47;;
8279;SDS011;8335;42.646;23.380;2023-04-24T01:58:26;9.47;;;6.33;;
8279;SDS011;8335;42.646;23.380;2023-04-24T02:00:53;10.77;;;6.80;;
8279;SDS011;8335;42.646;23.380;2023-04-24T02:03:22;13.83;;;7.13;;
8279;SDS011;8335;42.646;23.380;2023-04-24T02:05:49;7.50;;;6.53;;
8279;SDS011;8335;42.646;23.380;2023-04-24T02:08:16;10.43;;;7.00;;
8279;SDS011;8335;42.646;23.380;2023-04-24T02:10:43;9.20;;;7.50;;
8279;SDS011;8335;42.646;23.380;2023-04-24T02:13:09;8.90;;;7.63;;
8279;SDS011;8335;42.646;23.380;2023-04-24T02:15:37;11.03;;;7.93;;
8279;SDS011;8335;42.646;23.380;2023-04-24T02:18:04;10.00;;;7.60;;
8279;SDS011;8335;42.646;23.380;2023-04-24T02:20:32;13.50;;;8.03;;
8279;SDS011;8335;42.646;23.380;2023-04-24T02:23:00;9.57;;;7.23;;
8279;SDS011;8335;42.646;23.380;2023-04-24T02:25:27;10.27;;;7.47;;
8279;SDS011;8335;42.646;23.380;2023-04-24T02:27:54;10.80;;;7.50;;
8279;SDS011;8335;42.646;23.380;2023-04-24T02:30:20;12.00;;;8.27;;
8279;SDS011;8335;42.646;23.380;2023-04-24T02:32:48;12.37;;;8.27;;
8279;SDS011;8335;42.646;23.380;2023-04-24T02:35:15;13.47;;;7.80;;
8279;SDS011;8335;42.646;23.380;2023-04-24T02:37:42;12.87;;;7.73;;
8279;SDS011;8335;42.646;23.380;2023-04-24T02:40:09;11.87;;;7.53;;
8279;SDS011;8335;42.646;23.380;2023-04-24T02:42:36;10.47;;;7.47;;
8279;SDS011;8335;42.646;23.380;2023-04-24T02:45:03;11.73;;;7.40;;
8279;SDS011;8335;42.646;23.380;2023-04-24T02:47:30;14.33;;;7.50;;
8279;SDS011;8335;42.646;23.380;2023-04-24T02:49:58;9.93;;;7.10;;
8279;SDS011;8335;42.646;23.380;2023-04-24T02:52:25;10.70;;;7.70;;
8279;SDS011;8335;42.646;23.380;2023-04-24T02:54:51;13.77;;;7.27;;
8279;SDS011;8335;42.646;23.380;2023-04-24T02:57:18;9.30;;;7.33;;
8279;SDS011;8335;42.646;23.380;2023-04-24T02:59:45;12.27;;;8.03;;
8279;SDS011;8335;42.646;23.380;2023-04-24T03:02:12;10.70;;;7.60;;
8279;SDS011;8335;42.646;23.380;2023-04-24T03:04:39;12.93;;;8.03;;
8279;SDS011;8335;42.646;23.380;2023-04-24T03:07:09;10.00;;;8.03;;
8279;SDS011;8335;42.646;23.380;2023-04-24T03:09:36;9.57;;;8.00;;
8279;SDS011;8335;42.646;23.380;2023-04-24T03:12:02;13.53;;;8.47;;
8279;SDS011;8335;42.646;23.380;2023-04-24T03:14:29;13.07;;;8.03;;
8279;SDS011;8335;42.646;23.380;2023-04-24T03:16:56;14.97;;;8.87;;
8279;SDS011;8335;42.646;23.380;2023-04-24T03:19:23;13.90;;;8.70;;
8279;SDS011;8335;42.646;23.380;2023-04-24T03:21:50;13.47;;;8.40;;
8279;SDS011;8335;42.646;23.380;2023-04-24T03:24:18;12.83;;;8.77;;
8279;SDS011;8335;42.646;23.380;2023-04-24T03:26:45;15.33;;;8.73;;
8279;SDS011;8335;42.646;23.380;2023-04-24T03:29:12;11.27;;;8.40;;
8279;SDS011;8335;42.646;23.380;2023-04-24T03:31:39;16.53;;;8.43;;
8279;SDS011;8335;42.646;23.380;2023-04-24T03:34:05;11.27;;;8.03;;
8279;SDS011;8335;42.646;23.380;2023-04-24T03:36:32;11.40;;;8.27;;
8279;SDS011;8335;42.646;23.380;2023-04-24T03:38:59;12.00;;;8.80;;
8279;SDS011;8335;42.646;23.380;2023-04-24T03:41:27;12.10;;;9.17;;
8279;SDS011;8335;42.646;23.380;2023-04-24T03:43:55;11.97;;;8.53;;
8279;SDS011;8335;42.646;23.380;2023-04-24T03:46:21;13.33;;;8.03;;
8279;SDS011;8335;42.646;23.380;2023-04-24T03:48:48;11.90;;;8.50;;
8279;SDS011;8335;42.646;23.380;2023-04-24T03:51:15;13.87;;;8.20;;
8279;SDS011;8335;42.646;23.380;2023-04-24T03:53:42;13.57;;;8.03;;
8279;SDS011;8335;42.646;23.380;2023-04-24T03:56:08;13.37;;;8.17;;
8279;SDS011;8335;42.646;23.380;2023-04-24T03:58:37;14.97;;;8.33;;
8279;SDS011;8335;42.646;23.380;2023-04-24T04:01:03;13.77;;;9.43;;
8279;SDS011;8335;42.646;23.380;2023-04-24T04:03:30;15.97;;;9.10;;
8279;SDS011;8335;42.646;23.380;2023-04-24T04:05:57;12.30;;;8.73;;
8279;SDS011;8335;42.646;23.380;2023-04-24T04:08:24;14.70;;;9.53;;
8279;SDS011;8335;42.646;23.380;2023-04-24T04:10:51;12.60;;;9.03;;
8279;SDS011;8335;42.646;23.380;2023-04-24T04:13:18;12.90;;;9.20;;
8279;SDS011;8335;42.646;23.380;2023-04-24T04:15:46;13.83;;;9.00;;
8279;SDS011;8335;42.646;23.380;2023-04-24T04:18:13;13.43;;;8.97;;
8279;SDS011;8335;42.646;23.380;2023-04-24T04:20:40;18.93;;;9.43;;
8279;SDS011;8335;42.646;23.380;2023-04-24T04:23:06;15.47;;;9.63;;
8279;SDS011;8335;42.646;23.380;2023-04-24T04:25:33;12.90;;;9.13;;
8279;SDS011;8335;42.646;23.380;2023-04-24T04:28:00;14.33;;;9.70;;
8279;SDS011;8335;42.646;23.380;2023-04-24T04:30:27;15.37;;;9.23;;
8279;SDS011;8335;42.646;23.380;2023-04-24T04:32:55;15.40;;;9.10;;
8279;SDS011;8335;42.646;23.380;2023-04-24T04:35:22;18.03;;;9.43;;
8279;SDS011;8335;42.646;23.380;2023-04-24T04:37:49;14.60;;;8.80;;
8279;SDS011;8335;42.646;23.380;2023-04-24T04:40:16;17.17;;;8.93;;
8279;SDS011;8335;42.646;23.380;2023-04-24T04:42:43;14.63;;;8.60;;
8279;SDS011;8335;42.646;23.380;2023-04-24T04:45:11;14.70;;;8.37;;
8279;SDS011;8335;42.646;23.380;2023-04-24T04:47:38;13.53;;;9.07;;
8279;SDS011;8335;42.646;23.380;2023-04-24T04:50:07;16.57;;;8.13;;
8279;SDS011;8335;42.646;23.380;2023-04-24T04:52:35;16.80;;;7.93;;
8279;SDS011;8335;42.646;23.380;2023-04-24T04:55:02;12.93;;;7.93;;
8279;SDS011;8335;42.646;23.380;2023-04-24T04:57:30;14.77;;;7.93;;
8279;SDS011;8335;42.646;23.380;2023-04-24T04:59:57;16.77;;;8.13;;
8279;SDS011;8335;42.646;23.380;2023-04-24T05:02:23;15.70;;;9.17;;
8279;SDS011;8335;42.646;23.380;2023-04-24T05:04:50;12.07;;;9.03;;
8279;SDS011;8335;42.646;23.380;2023-04-24T05:07:18;13.97;;;8.83;;
8279;SDS011;8335;42.646;23.380;2023-04-24T05:09:45;12.90;;;8.03;;
8279;SDS011;8335;42.646;23.380;2023-04-24T05:12:12;11.50;;;8.60;;
8279;SDS011;8335;42.646;23.380;2023-04-24T05:14:38;14.33;;;8.23;;
8279;SDS011;8335;42.646;23.380;2023-04-24T05:17:05;13.57;;;8.90;;
8279;SDS011;8335;42.646;23.380;2023-04-24T05:19:32;17.70;;;8.43;;
8279;SDS011;8335;42.646;23.380;2023-04-24T05:22:01;12.63;;;8.37;;
8279;SDS011;8335;42.646;23.380;2023-04-24T05:24:30;14.00;;;7.87;;
8279;SDS011;8335;42.646;23.380;2023-04-24T05:26:57;18.47;;;7.87;;
8279;SDS011;8335;42.646;23.380;2023-04-24T05:29:24;17.03;;;7.60;;
8279;SDS011;8335;42.646;23.380;2023-04-24T05:31:52;15.30;;;8.10;;
8279;SDS011;8335;42.646;23.380;2023-04-24T05:34:18;20.63;;;8.23;;
8279;SDS011;8335;42.646;23.380;2023-04-24T05:36:45;10.43;;;7.27;;
8279;SDS011;8335;42.646;23.380;2023-04-24T05:39:12;15.90;;;7.23;;
8279;SDS011;8335;42.646;23.380;2023-04-24T05:41:41;11.67;;;7.33;;
8279;SDS011;8335;42.646;23.380;2023-04-24T05:44:08;15.80;;;7.17;;
8279;SDS011;8335;42.646;23.380;2023-04-24T05:46:34;16.67;;;7.33;;
8279;SDS011;8335;42.646;23.380;2023-04-24T05:49:01;13.17;;;8.00;;
8279;SDS011;8335;42.646;23.380;2023-04-24T05:51:28;11.47;;;7.00;;
8279;SDS011;8335;42.646;23.380;2023-04-24T05:53:55;11.43;;;7.37;;
8279;SDS011;8335;42.646;23.380;2023-04-24T05:56:22;12.03;;;7.07;;
8279;SDS011;8335;42.646;23.380;2023-04-24T05:58:50;13.27;;;7.47;;
8279;SDS011;8335;42.646;23.380;2023-04-24T06:01:17;10.15;;;7.07;;
8279;SDS011;8335;42.646;23.380;2023-04-24T06:03:44;11.25;;;7.15;;
8279;SDS011;8335;42.646;23.380;2023-04-24T06:06:11;14.52;;;7.22;;
8279;SDS011;8335;42.646;23.380;2023-04-24T06:08:38;20.23;;;7.70;;
8279;SDS011;8335;42.646;23.380;2023-04-24T06:11:05;13.13;;;7.10;;
8279;SDS011;8335;42.646;23.380;2023-04-24T06:13:31;13.70;;;7.40;;
8279;SDS011;8335;42.646;23.380;2023-04-24T06:15:59;13.30;;;7.28;;
8279;SDS011;8335;42.646;23.380;2023-04-24T06:18:26;9.85;;;6.88;;
8279;SDS011;8335;42.646;23.380;2023-04-24T06:20:53;9.43;;;6.70;;
8279;SDS011;8335;42.646;23.380;2023-04-24T06:23:20;12.48;;;7.45;;
8279;SDS011;8335;42.646;23.380;2023-04-24T06:25:47;11.20;;;6.82;;
8279;SDS011;8335;42.646;23.380;2023-04-24T06:28:13;8.95;;;6.97;;
8279;SDS011;8335;42.646;23.380;2023-04-24T06:30:40;10.65;;;7.00;;
8279;SDS011;8335;42.646;23.380;2023-04-24T06:33:09;15.10;;;6.97;;
8279;SDS011;8335;42.646;23.380;2023-04-24T06:35:36;13.52;;;6.60;;
8279;SDS011;8335;42.646;23.380;2023-04-24T06:38:03;14.45;;;7.22;;
8279;SDS011;8335;42.646;23.380;2023-04-24T06:40:30;11.23;;;7.07;;
8279;SDS011;8335;42.646;23.380;2023-04-24T06:42:57;14.95;;;7.47;;
8279;SDS011;8335;42.646;23.380;2023-04-24T06:45:25;14.55;;;7.00;;
8279;SDS011;8335;42.646;23.380;2023-04-24T06:47:51;13.02;;;6.32;;
8279;SDS011;8335;42.646;23.380;2023-04-24T06:50:20;14.55;;;7.05;;
8279;SDS011;8335;42.646;23.380;2023-04-24T06:52:46;10.00;;;6.95;;
8279;SDS011;8335;42.646;23.380;2023-04-24T06:55:13;13.02;;;6.72;;
8279;SDS011;8335;42.646;23.380;2023-04-24T06:57:41;10.65;;;6.68;;
8279;SDS011;8335;42.646;23.380;2023-04-24T07:00:09;12.82;;;7.10;;
8279;SDS011;8335;42.646;23.380;2023-04-24T07:02:37;8.05;;;7.10;;
8279;SDS011;8335;42.646;23.380;2023-04-24T07:05:04;10.23;;;7.30;;
8279;SDS011;8335;42.646;23.380;2023-04-24T07:07:33;10.38;;;7.00;;
8279;SDS011;8335;42.646;23.380;2023-04-24T07:10:03;12.43;;;7.25;;
8279;SDS011;8335;42.646;23.380;2023-04-24T07:12:30;11.50;;;7.10;;
8279;SDS011;8335;42.646;23.380;2023-04-24T07:14:57;12.60;;;6.95;;
8279;SDS011;8335;42.646;23.380;2023-04-24T07:17:24;12.10;;;7.32;;
8279;SDS011;8335;42.646;23.380;2023-04-24T07:19:50;10.35;;;6.95;;
8279;SDS011;8335;42.646;23.380;2023-04-24T07:22:17;12.15;;;7.13;;
8279;SDS011;8335;42.646;23.380;2023-04-24T07:24:45;10.93;;;6.78;;
8279;SDS011;8335;42.646;23.380;2023-04-24T07:27:12;10.02;;;7.78;;
8279;SDS011;8335;42.646;23.380;2023-04-24T07:29:40;11.18;;;7.75;;
8279;SDS011;8335;42.646;23.380;2023-04-24T07:32:06;15.48;;;7.55;;
8279;SDS011;8335;42.646;23.380;2023-04-24T07:34:34;12.27;;;7.35;;
8279;SDS011;8335;42.646;23.380;2023-04-24T07:37:01;12.88;;;6.90;;
8279;SDS011;8335;42.646;23.380;2023-04-24T07:39:28;11.90;;;6.95;;
8279;SDS011;8335;42.646;23.380;2023-04-24T07:41:56;14.18;;;7.47;;
8279;SDS011;8335;42.646;23.380;2023-04-24T07:44:25;12.75;;;6.75;;
8279;SDS011;8335;42.646;23.380;2023-04-24T07:46:52;7.75;;;5.82;;
8279;SDS011;8335;42.646;23.380;2023-04-24T07:49:19;13.85;;;6.22;;
8279;SDS011;8335;42.646;23.380;2023-04-24T07:51:46;10.73;;;5.75;;
8279;SDS011;8335;42.646;23.380;2023-04-24T07:54:13;7.97;;;5.78;;
8279;SDS011;8335;42.646;23.380;2023-04-24T07:56:40;5.28;;;4.70;;
8279;SDS011;8335;42.646;23.380;2023-04-24T07:59:09;9.07;;;5.25;;
8279;SDS011;8335;42.646;23.380;2023-04-24T08:01:36;7.47;;;5.10;;
8279;SDS011;8335;42.646;23.380;2023-04-24T08:04:03;12.73;;;5.85;;
8279;SDS011;8335;42.646;23.380;2023-04-24T08:06:30;9.40;;;6.22;;
8279;SDS011;8335;42.646;23.380;2023-04-24T08:08:57;13.20;;;6.50;;
8279;SDS011;8335;42.646;23.380;2023-04-24T08:11:23;12.40;;;6.93;;
8279;SDS011;8335;42.646;23.380;2023-04-24T08:13:50;14.30;;;7.28;;
8279;SDS011;8335;42.646;23.380;2023-04-24T08:16:19;12.80;;;6.72;;
8279;SDS011;8335;42.646;23.380;2023-04-24T08:18:45;11.52;;;6.93;;
8279;SDS011;8335;42.646;23.380;2023-04-24T08:21:12;12.48;;;6.28;;
8279;SDS011;8335;42.646;23.380;2023-04-24T08:23:42;14.52;;;6.50;;
8279;SDS011;8335;42.646;23.380;2023-04-24T08:26:08;11.90;;;5.70;;
8279;SDS011;8335;42.646;23.380;2023-04-24T08:28:36;9.75;;;5.80;;
8279;SDS011;8335;42.646;23.380;2023-04-24T08:31:03;11.50;;;5.35;;
8279;SDS011;8335;42.646;23.380;2023-04-24T08:33:31;8.85;;;5.43;;
8279;SDS011;8335;42.646;23.380;2023-04-24T08:35:59;11.32;;;5.70;;
8279;SDS011;8335;42.646;23.380;2023-04-24T08:38:26;9.23;;;5.60;;
8279;SDS011;8335;42.646;23.380;2023-04-24T08:40:53;7.50;;;5.80;;
8279;SDS011;8335;42.646;23.380;2023-04-24T08:43:20;10.25;;;5.43;;
8279;SDS011;8335;42.646;23.380;2023-04-24T08:45:48;13.32;;;6.30;;
8279;SDS011;8335;42.646;23.380;2023-04-24T08:48:16;11.32;;;6.00;;
8279;SDS011;8335;42.646;23.380;2023-04-24T08:50:45;7.38;;;5.63;;
8279;SDS011;8335;42.646;23.380;2023-04-24T08:53:12;9.02;;;5.82;;
8279;SDS011;8335;42.646;23.380;2023-04-24T08:55:39;8.52;;;5.30;;
8279;SDS011;8335;42.646;23.380;2023-04-24T08:58:09;9.65;;;5.38;;
8279;SDS011;8335;42.646;23.380;2023-04-24T09:00:37;7.90;;;5.68;;
8279;SDS011;8335;42.646;23.380;2023-04-24T09:03:09;9.40;;;4.93;;
8279;SDS011;8335;42.646;23.380;2023-04-24T09:05:36;5.60;;;4.72;;
8279;SDS011;8335;42.646;23.380;2023-04-24T09:08:07;6.93;;;4.70;;
8279;SDS011;8335;42.646;23.380;2023-04-24T09:10:36;8.98;;;4.78;;
8279;SDS011;8335;42.646;23.380;2023-04-24T09:13:02;9.68;;;5.05;;
8279;SDS011;8335;42.646;23.380;2023-04-24T09:15:29;9.07;;;4.95;;
8279;SDS011;8335;42.646;23.380;2023-04-24T09:17:56;11.10;;;5.03;;
8279;SDS011;8335;42.646;23.380;2023-04-24T09:20:24;11.85;;;5.05;;
8279;SDS011;8335;42.646;23.380;2023-04-24T09:22:53;10.23;;;4.95;;
8279;SDS011;8335;42.646;23.380;2023-04-24T09:25:22;6.82;;;4.70;;
8279;SDS011;8335;42.646;23.380;2023-04-24T09:27:53;10.27;;;5.50;;
8279;SDS011;8335;42.646;23.380;2023-04-24T09:30:20;5.72;;;5.00;;
8279;SDS011;8335;42.646;23.380;2023-04-24T09:32:48;6.28;;;4.82;;
8279;SDS011;8335;42.646;23.380;2023-04-24T09:35:15;6.40;;;4.68;;
8279;SDS011;8335;42.646;23.380;2023-04-24T09:37:43;7.05;;;5.07;;
8279;SDS011;8335;42.646;23.380;2023-04-24T09:40:15;10.15;;;5.22;;
8279;SDS011;8335;42.646;23.380;2023-04-24T09:42:51;9.25;;;5.53;;
8279;SDS011;8335;42.646;23.380;2023-04-24T09:45:18;6.57;;;4.53;;
8279;SDS011;8335;42.646;23.380;2023-04-24T09:47:46;7.90;;;5.13;;
8279;SDS011;8335;42.646;23.380;2023-04-24T09:50:18;7.22;;;4.70;;
8279;SDS011;8335;42.646;23.380;2023-04-24T09:52:45;11.63;;;5.85;;
8279;SDS011;8335;42.646;23.380;2023-04-24T09:55:19;9.38;;;5.18;;
8279;SDS011;8335;42.646;23.380;2023-04-24T09:57:51;5.38;;;4.18;;
8279;SDS011;8335;42.646;23.380;2023-04-24T10:00:23;9.63;;;4.32;;
8279;SDS011;8335;42.646;23.380;2023-04-24T10:02:55;5.40;;;4.13;;
8279;SDS011;8335;42.646;23.380;2023-04-24T10:05:23;7.78;;;4.88;;
8279;SDS011;8335;42.646;23.380;2023-04-24T10:07:51;5.35;;;4.22;;
8279;SDS011;8335;42.646;23.380;2023-04-24T10:10:18;8.52;;;4.53;;
8279;SDS011;8335;42.646;23.380;2023-04-24T10:12:45;7.70;;;4.70;;
8279;SDS011;8335;42.646;23.380;2023-04-24T10:15:14;5.40;;;4.00;;
8279;SDS011;8335;42.646;23.380;2023-04-24T10:17:45;6.80;;;4.60;;
8279;SDS011;8335;42.646;23.380;2023-04-24T10:20:17;7.32;;;4.70;;
8279;SDS011;8335;42.646;23.380;2023-04-24T10:22:45;10.15;;;4.43;;
8279;SDS011;8335;42.646;23.380;2023-04-24T10:25:16;5.72;;;4.40;;
8279;SDS011;8335;42.646;23.380;2023-04-24T10:27:45;12.32;;;6.88;;
8279;SDS011;8335;42.646;23.380;2023-04-24T10:30:12;7.53;;;5.30;;
8279;SDS011;8335;42.646;23.380;2023-04-24T10:32:41;7.28;;;4.60;;
8279;SDS011;8335;42.646;23.380;2023-04-24T10:35:08;12.18;;;4.55;;
8279;SDS011;8335;42.646;23.380;2023-04-24T10:37:36;9.00;;;5.10;;
8279;SDS011;8335;42.646;23.380;2023-04-24T10:40:05;9.43;;;4.63;;
8279;SDS011;8335;42.646;23.380;2023-04-24T10:42:34;7.30;;;5.05;;
8279;SDS011;8335;42.646;23.380;2023-04-24T10:45:04;7.68;;;4.88;;
8279;SDS011;8335;42.646;23.380;2023-04-24T10:47:40;11.43;;;5.00;;
8279;SDS011;8335;42.646;23.380;2023-04-24T10:50:08;7.07;;;4.57;;
8279;SDS011;8335;42.646;23.380;2023-04-24T10:52:44;7.60;;;4.45;;
8279;SDS011;8335;42.646;23.380;2023-04-24T10:55:12;7.82;;;4.22;;
8279;SDS011;8335;42.646;23.380;2023-04-24T10:57:39;8.00;;;4.10;;
8279;SDS011;8335;42.646;23.380;2023-04-24T11:00:16;9.00;;;6.80;;
8279;SDS011;8335;42.646;23.380;2023-04-24T11:02:47;6.70;;;4.72;;
8279;SDS011;8335;42.646;23.380;2023-04-24T11:05:17;10.45;;;4.30;;
8279;SDS011;8335;42.646;23.380;2023-04-24T11:10:43;11.20;;;5.22;;
8279;SDS011;8335;42.646;23.380;2023-04-24T11:13:10;6.90;;;3.95;;
8279;SDS011;8335;42.646;23.380;2023-04-24T11:15:41;7.72;;;4.63;;
8279;SDS011;8335;42.646;23.380;2023-04-24T11:18:13;7.30;;;4.50;;
8279;SDS011;8335;42.646;23.380;2023-04-24T11:20:42;7.55;;;4.18;;
8279;SDS011;8335;42.646;23.380;2023-04-24T11:23:11;5.35;;;4.20;;
8279;SDS011;8335;42.646;23.380;2023-04-24T11:25:39;6.20;;;4.30;;
8279;SDS011;8335;42.646;23.380;2023-04-24T11:28:06;7.05;;;4.35;;
8279;SDS011;8335;42.646;23.380;2023-04-24T11:30:32;5.18;;;3.92;;
8279;SDS011;8335;42.646;23.380;2023-04-24T11:33:03;8.45;;;4.50;;
8279;SDS011;8335;42.646;23.380;2023-04-24T11:35:35;10.18;;;4.50;;
8279;SDS011;8335;42.646;23.380;2023-04-24T11:38:06;13.27;;;4.35;;
8279;SDS011;8335;42.646;23.380;2023-04-24T11:40:33;6.20;;;3.78;;
8279;SDS011;8335;42.646;23.380;2023-04-24T11:43:00;11.70;;;4.03;;
8279;SDS011;8335;42.646;23.380;2023-04-24T11:45:28;8.65;;;4.55;;
8279;SDS011;8335;42.646;23.380;2023-04-24T11:47:55;5.32;;;3.60;;
8279;SDS011;8335;42.646;23.380;2023-04-24T11:50:24;5.53;;;3.70;;
8279;SDS011;8335;42.646;23.380;2023-04-24T11:52:54;4.35;;;3.47;;
8279;SDS011;8335;42.646;23.380;2023-04-24T11:55:25;5.10;;;3.85;;
8279;SDS011;8335;42.646;23.380;2023-04-24T11:57:54;5.38;;;4.30;;
8279;SDS011;8335;42.646;23.380;2023-04-24T12:00:23;4.85;;;3.80;;
8279;SDS011;8335;42.646;23.380;2023-04-24T12:02:51;3.88;;;3.50;;
8279;SDS011;8335;42.646;23.380;2023-04-24T12:05:30;4.10;;;3.75;;
8279;SDS011;8335;42.646;23.380;2023-04-24T12:07:58;6.13;;;4.10;;
8279;SDS011;8335;42.646;23.380;2023-04-24T12:10:26;4.55;;;3.45;;
8279;SDS011;8335;42.646;23.380;2023-04-24T12:12:55;5.05;;;3.95;;
8279;SDS011;8335;42.646;23.380;2023-04-24T12:15:23;4.57;;;4.18;;
8279;SDS011;8335;42.646;23.380;2023-04-24T12:17:50;5.93;;;4.10;;
8279;SDS011;8335;42.646;23.380;2023-04-24T12:20:23;9.30;;;4.55;;
8279;SDS011;8335;42.646;23.380;2023-04-24T12:22:51;6.38;;;4.07;;
8279;SDS011;8335;42.646;23.380;2023-04-24T12:25:21;4.95;;;4.18;;
8279;SDS011;8335;42.646;23.380;2023-04-24T12:27:52;7.10;;;4.95;;
8279;SDS011;8335;42.646;23.380;2023-04-24T12:30:20;7.32;;;4.18;;
8279;SDS011;8335;42.646;23.380;2023-04-24T12:32:48;4.88;;;4.20;;
8279;SDS011;8335;42.646;23.380;2023-04-24T12:35:18;4.00;;;3.70;;
8279;SDS011;8335;42.646;23.380;2023-04-24T12:37:46;5.63;;;4.35;;
8279;SDS011;8335;42.646;23.380;2023-04-24T12:40:13;5.35;;;4.40;;
8279;SDS011;8335;42.646;23.380;2023-04-24T12:42:43;6.55;;;3.85;;
8279;SDS011;8335;42.646;23.380;2023-04-24T12:45:11;5.38;;;3.50;;
8279;SDS011;8335;42.646;23.380;2023-04-24T12:47:39;4.20;;;3.80;;
8279;SDS011;8335;42.646;23.380;2023-04-24T12:50:07;4.10;;;3.70;;
8279;SDS011;8335;42.646;23.380;2023-04-24T12:52:35;4.43;;;3.83;;
8279;SDS011;8335;42.646;23.380;2023-04-24T12:55:02;5.13;;;4.20;;
8279;SDS011;8335;42.646;23.380;2023-04-24T12:57:30;7.30;;;4.45;;
8279;SDS011;8335;42.646;23.380;2023-04-24T12:59:58;5.55;;;4.38;;
8279;SDS011;8335;42.646;23.380;2023-04-24T13:02:26;6.60;;;4.40;;
8279;SDS011;8335;42.646;23.380;2023-04-24T13:04:55;6.75;;;4.40;;
8279;SDS011;8335;42.646;23.380;2023-04-24T13:07:22;6.18;;;4.80;;
8279;SDS011;8335;42.646;23.380;2023-04-24T13:09:49;7.88;;;4.38;;
8279;SDS011;8335;42.646;23.380;2023-04-24T13:12:17;6.28;;;4.50;;
8279;SDS011;8335;42.646;23.380;2023-04-24T13:14:44;9.85;;;4.35;;
8279;SDS011;8335;42.646;23.380;2023-04-24T13:17:13;7.25;;;4.70;;
8279;SDS011;8335;42.646;23.380;2023-04-24T13:19:40;5.53;;;4.30;;
8279;SDS011;8335;42.646;23.380;2023-04-24T13:22:09;8.27;;;5.28;;
8279;SDS011;8335;42.646;23.380;2023-04-24T13:24:37;6.50;;;4.50;;
8279;SDS011;8335;42.646;23.380;2023-04-24T13:27:05;5.18;;;4.68;;
8279;SDS011;8335;42.646;23.380;2023-04-24T13:29:33;8.05;;;5.25;;
8279;SDS011;8335;42.646;23.380;2023-04-24T13:31:59;6.70;;;4.55;;
8279;SDS011;8335;42.646;23.380;2023-04-24T13:34:28;6.80;;;5.03;;
8279;SDS011;8335;42.646;23.380;2023-04-24T13:36:56;6.07;;;4.47;;
8279;SDS011;8335;42.646;23.380;2023-04-24T13:39:24;8.88;;;4.75;;
8279;SDS011;8335;42.646;23.380;2023-04-24T13:41:51;8.52;;;5.43;;
8279;SDS011;8335;42.646;23.380;2023-04-24T13:44:19;4.95;;;4.45;;
8279;SDS011;8335;42.646;23.380;2023-04-24T13:46:47;5.75;;;4.65;;
8279;SDS011;8335;42.646;23.380;2023-04-24T13:49:16;5.68;;;4.95;;
8279;SDS011;8335;42.646;23.380;2023-04-24T13:51:45;6.20;;;4.80;;
8279;SDS011;8335;42.646;23.380;2023-04-24T13:54:12;9.25;;;4.85;;
8279;SDS011;8335;42.646;23.380;2023-04-24T13:56:39;6.70;;;5.10;;
8279;SDS011;8335;42.646;23.380;2023-04-24T13:59:06;6.47;;;4.43;;
8279;SDS011;8335;42.646;23.380;2023-04-24T14:01:33;10.57;;;4.78;;
8279;SDS011;8335;42.646;23.380;2023-04-24T14:04:01;5.68;;;5.03;;
8279;SDS011;8335;42.646;23.380;2023-04-24T14:06:27;7.32;;;5.03;;
8279;SDS011;8335;42.646;23.380;2023-04-24T14:08:56;6.65;;;4.93;;
8279;SDS011;8335;42.646;23.380;2023-04-24T14:11:22;7.50;;;4.80;;
8279;SDS011;8335;42.646;23.380;2023-04-24T14:13:49;6.40;;;4.75;;
8279;SDS011;8335;42.646;23.380;2023-04-24T14:16:16;7.03;;;4.82;;
8279;SDS011;8335;42.646;23.380;2023-04-24T14:18:43;8.80;;;4.65;;
8279;SDS011;8335;42.646;23.380;2023-04-24T14:21:09;5.18;;;4.03;;
8279;SDS011;8335;42.646;23.380;2023-04-24T14:23:36;4.63;;;3.50;;
8279;SDS011;8335;42.646;23.380;2023-04-24T14:26:04;6.53;;;3.80;;
8279;SDS011;8335;42.646;23.380;2023-04-24T14:28:32;6.65;;;3.53;;
8279;SDS011;8335;42.646;23.380;2023-04-24T14:30:58;3.92;;;3.63;;
8279;SDS011;8335;42.646;23.380;2023-04-24T14:33:25;4.30;;;3.90;;
8279;SDS011;8335;42.646;23.380;2023-04-24T14:35:52;4.05;;;3.70;;
8279;SDS011;8335;42.646;23.380;2023-04-24T14:38:19;7.13;;;4.28;;
8279;SDS011;8335;42.646;23.380;2023-04-24T14:40:46;7.43;;;3.95;;
8279;SDS011;8335;42.646;23.380;2023-04-24T14:43:14;7.32;;;3.65;;
8279;SDS011;8335;42.646;23.380;2023-04-24T14:45:41;5.97;;;3.95;;
8279;SDS011;8335;42.646;23.380;2023-04-24T14:48:08;5.60;;;4.05;;
8279;SDS011;8335;42.646;23.380;2023-04-24T14:50:36;7.07;;;3.97;;
8279;SDS011;8335;42.646;23.380;2023-04-24T14:53:03;7.47;;;4.00;;
8279;SDS011;8335;42.646;23.380;2023-04-24T14:55:30;4.63;;;3.90;;
8279;SDS011;8335;42.646;23.380;2023-04-24T14:57:58;5.90;;;4.15;;
8279;SDS011;8335;42.646;23.380;2023-04-24T15:00:26;5.00;;;4.50;;